Time;durP1;ratioP1;P1;durP2;ratioP2;P2;SDS_P1;SDS_P2;PMS_P1;PMS_P2;Temp;Humidity;BMP_temperature;BMP_pressure;BME280_temperature;BME280_humidity;BME280_pressure;Samples;Min_cycle;Max_cycle;Signal;HPM_P1;HPM_P2
2021/01/12 00:02:19;;;;;;;172.77;50.27;;;-7.40;99.90;;;;;;4398555;28;661066;-67
2021/01/12 00:05:09;;;;;;;183.80;50.70;;;-7.50;99.90;;;;;;4375435;28;662039;-67
2021/01/12 00:07:56;;;;;;;173.27;51.65;;;-7.50;99.90;;;;;;4379724;28;661192;-67
2021/01/12 00:10:43;;;;;;;174.10;50.63;;;-7.50;99.90;;;;;;4398216;28;661001;-67
2021/01/12 00:13:30;;;;;;;192.57;53.47;;;-7.60;99.90;;;;;;4363348;28;659698;-67
2021/01/12 00:16:19;;;;;;;180.27;48.08;;;-7.50;99.90;;;;;;4381099;28;661397;-67
2021/01/12 00:19:06;;;;;;;153.57;45.60;;;-7.50;99.90;;;;;;4373633;28;660328;-67
2021/01/12 00:21:54;;;;;;;164.53;47.93;;;-7.50;99.90;;;;;;4387248;28;660244;-68
2021/01/12 00:24:41;;;;;;;161.23;49.13;;;-7.40;99.90;;;;;;4357167;28;661318;-68
2021/01/12 00:27:29;;;;;;;156.27;46.70;;;-7.30;99.90;;;;;;4370824;28;659722;-63
2021/01/12 00:30:17;;;;;;;161.00;45.03;;;-7.20;99.90;;;;;;4386366;28;661001;-67
2021/01/12 00:33:06;;;;;;;163.25;44.42;;;-7.10;99.90;;;;;;4369379;28;659638;-62
2021/01/12 00:35:54;;;;;;;103.78;32.67;;;-7.00;99.90;;;;;;4374099;28;659672;-63
2021/01/12 00:38:42;;;;;;;142.48;43.35;;;-6.80;99.90;;;;;;4384595;28;659396;-67
2021/01/12 00:41:29;;;;;;;159.07;42.53;;;-6.50;99.90;;;;;;4363304;28;661044;-62
2021/01/12 00:44:16;;;;;;;141.70;40.07;;;-6.60;99.90;;;;;;4388500;28;660900;-67
2021/01/12 00:47:03;;;;;;;142.17;41.10;;;-6.70;99.90;;;;;;4388027;28;660934;-68
2021/01/12 00:49:50;;;;;;;138.73;40.03;;;-6.80;99.90;;;;;;4368232;28;659711;-67
2021/01/12 00:52:37;;;;;;;132.33;40.60;;;-6.90;99.90;;;;;;4388130;28;660585;-67
2021/01/12 00:55:25;;;;;;;144.57;40.57;;;-7.00;99.90;;;;;;4369267;28;660747;-66
2021/01/12 00:58:12;;;;;;;149.07;41.25;;;-7.10;99.90;;;;;;4382943;28;660324;-66
2021/01/12 01:00:59;;;;;;;146.37;40.13;;;-7.10;99.90;;;;;;4369650;28;659646;-63
2021/01/12 01:03:45;;;;;;;138.30;42.10;;;-7.10;99.90;;;;;;4384504;28;659885;-67
2021/01/12 01:06:34;;;;;;;140.13;38.33;;;-7.10;99.90;;;;;;4387002;28;661329;-67
2021/01/12 01:09:21;;;;;;;139.67;38.53;;;-7.00;99.90;;;;;;4361817;28;661059;-67
2021/01/12 01:12:09;;;;;;;144.43;40.77;;;-7.00;99.90;;;;;;4381145;28;660472;-67
2021/01/12 01:14:56;;;;;;;149.30;41.83;;;-7.00;99.90;;;;;;4360790;28;661364;-67
2021/01/12 01:17:43;;;;;;;133.43;38.47;;;-7.00;99.90;;;;;;4388992;28;661025;-67
2021/01/12 01:20:30;;;;;;;123.43;38.30;;;-7.00;99.90;;;;;;4361784;28;659516;-67
2021/01/12 01:23:17;;;;;;;137.57;39.17;;;-7.00;99.90;;;;;;4386271;28;661198;-67
2021/01/12 01:26:05;;;;;;;132.60;37.97;;;-7.00;99.90;;;;;;4361411;28;659775;-64
2021/01/12 01:28:53;;;;;;;137.50;40.17;;;-7.00;99.90;;;;;;4395747;28;661361;-67
2021/01/12 01:31:42;;;;;;;120.33;37.47;;;-7.10;99.90;;;;;;4376319;28;660279;-67
2021/01/12 01:34:29;;;;;;;112.30;30.52;;;-7.10;99.90;;;;;;4369919;28;659599;-64
2021/01/12 01:37:17;;;;;;;120.85;35.22;;;-7.10;99.90;;;;;;4383445;28;659398;-67
2021/01/12 01:40:04;;;;;;;111.90;35.00;;;-6.70;99.90;;;;;;4361518;28;659667;-64
2021/01/12 01:42:51;;;;;;;34.20;11.20;;;-6.60;99.90;;;;;;4389802;28;660399;-67
2021/01/12 01:45:40;;;;;;;101.93;31.50;;;-6.10;99.90;;;;;;4381140;28;659855;-64
2021/01/12 01:48:26;;;;;;;18.43;9.00;;;-6.10;99.90;;;;;;4382985;28;660279;-67
2021/01/12 01:51:14;;;;;;;111.57;33.95;;;-5.90;99.90;;;;;;4367877;28;659098;-64
2021/01/12 01:54:01;;;;;;;99.60;30.88;;;-5.90;99.90;;;;;;4387549;28;659417;-66
2021/01/12 01:56:48;;;;;;;108.60;32.30;;;-5.60;99.90;;;;;;4384100;28;659244;-67
2021/01/12 01:59:35;;;;;;;69.23;21.77;;;-5.60;99.90;;;;;;4362017;28;659678;-67
2021/01/12 02:02:22;;;;;;;121.93;33.87;;;-5.60;99.90;;;;;;4380757;28;660159;-67
2021/01/12 02:05:11;;;;;;;95.93;31.40;;;-5.30;99.90;;;;;;4366536;28;660597;-66
2021/01/12 02:07:59;;;;;;;114.93;33.30;;;-5.40;99.90;;;;;;4381517;28;658199;-67
2021/01/12 02:10:47;;;;;;;98.40;29.97;;;-5.60;99.90;;;;;;4364499;28;661071;-67
2021/01/12 02:13:34;;;;;;;112.27;32.90;;;-5.70;99.90;;;;;;4368324;28;658499;-67
2021/01/12 02:16:21;;;;;;;113.37;33.90;;;-5.90;99.90;;;;;;4390845;28;661260;-67
2021/01/12 02:19:11;;;;;;;105.90;32.93;;;-6.00;99.90;;;;;;4382396;28;660403;-62
2021/01/12 02:22:02;;;;;;;103.43;31.73;;;-6.10;99.90;;;;;;4378929;28;659422;-63
2021/01/12 02:24:50;;;;;;;108.10;32.87;;;-6.40;99.90;;;;;;4367445;28;660053;-65
2021/01/12 02:27:37;;;;;;;110.70;33.67;;;-6.50;99.90;;;;;;4386104;28;660343;-67
2021/01/12 02:30:24;;;;;;;96.63;30.25;;;-6.60;99.90;;;;;;4369805;28;659921;-63
2021/01/12 02:33:11;;;;;;;111.32;33.65;;;-6.70;99.90;;;;;;4393365;28;658993;-66
2021/01/12 02:35:58;;;;;;;106.50;32.83;;;-6.80;99.90;;;;;;4387751;28;661342;-67
2021/01/12 02:38:45;;;;;;;102.87;31.47;;;-6.90;99.90;;;;;;4367287;28;659606;-66
2021/01/12 02:41:33;;;;;;;108.90;32.05;;;-7.10;99.90;;;;;;4379709;28;661263;-66
2021/01/12 02:44:21;;;;;;;103.97;32.10;;;-7.10;99.90;;;;;;4366219;28;659551;-66
2021/01/12 02:47:09;;;;;;;93.70;31.25;;;-7.10;99.90;;;;;;4366561;28;659906;-64
2021/01/12 02:49:56;;;;;;;113.55;32.42;;;-7.30;99.90;;;;;;4392694;28;658392;-67
2021/01/12 02:52:43;;;;;;;98.43;31.50;;;-7.30;99.90;;;;;;4386193;28;661165;-67
2021/01/12 02:55:30;;;;;;;95.45;30.10;;;-7.40;99.90;;;;;;4366082;28;660231;-66
2021/01/12 02:58:18;;;;;;;105.57;29.60;;;-7.40;99.90;;;;;;4387963;28;659486;-67
2021/01/12 03:01:05;;;;;;;98.60;31.70;;;-7.50;99.90;;;;;;4368736;28;660298;-66
2021/01/12 03:03:52;;;;;;;84.03;28.50;;;-7.50;99.90;;;;;;4382237;28;660031;-67
2021/01/12 03:06:39;;;;;;;99.63;31.00;;;-7.70;99.90;;;;;;4366354;28;658802;-63
2021/01/12 03:09:26;;;;;;;97.73;29.57;;;-7.80;99.90;;;;;;4384861;28;658204;-67
2021/01/12 03:12:12;;;;;;;105.33;30.77;;;-7.80;99.90;;;;;;4389090;28;659466;-66
2021/01/12 03:15:00;;;;;;;104.50;30.93;;;-7.80;99.90;;;;;;4370176;28;659954;-66
2021/01/12 03:17:47;;;;;;;91.60;28.77;;;-7.80;99.90;;;;;;4386501;28;660463;-66
2021/01/12 03:20:34;;;;;;;99.50;29.73;;;-7.80;99.90;;;;;;4361630;28;659279;-66
2021/01/12 03:23:21;;;;;;;93.63;28.67;;;-7.90;99.90;;;;;;4389203;28;660546;-66
2021/01/12 03:26:09;;;;;;;98.97;30.70;;;-7.90;99.90;;;;;;4374599;28;659389;-63
2021/01/12 03:28:56;;;;;;;116.95;34.22;;;-8.00;99.90;;;;;;4391941;28;658554;-66
2021/01/12 03:31:43;;;;;;;97.68;30.25;;;-8.00;99.90;;;;;;4397092;28;659642;-66
2021/01/12 03:34:30;;;;;;;103.70;30.33;;;-8.00;99.90;;;;;;4361464;28;660396;-67
2021/01/12 03:37:17;;;;;;;102.87;30.83;;;-8.00;99.90;;;;;;4391953;28;660443;-67
2021/01/12 03:40:05;;;;;;;103.00;29.30;;;-8.10;99.90;;;;;;4369350;28;660384;-65
2021/01/12 03:42:52;;;;;;;107.53;33.00;;;-8.20;99.90;;;;;;4385007;28;659953;-67
2021/01/12 03:45:39;;;;;;;104.73;30.37;;;-8.20;99.90;;;;;;4356928;28;660674;-66
2021/01/12 03:48:27;;;;;;;118.47;33.47;;;-8.30;99.90;;;;;;4392725;28;661511;-66
2021/01/12 03:51:14;;;;;;;106.90;31.73;;;-8.30;99.90;;;;;;4363705;28;660346;-66
2021/01/12 03:54:01;;;;;;;125.93;33.97;;;-8.30;99.90;;;;;;4385246;28;660625;-66
2021/01/12 03:56:49;;;;;;;102.20;32.20;;;-8.40;99.90;;;;;;4392914;28;659485;-62
2021/01/12 03:59:35;;;;;;;100.40;31.70;;;-8.40;99.90;;;;;;4385472;28;660260;-67
2021/01/12 04:02:22;;;;;;;95.10;29.80;;;-8.40;99.90;;;;;;4394882;28;659812;-64
2021/01/12 04:05:11;;;;;;;110.27;32.23;;;-8.20;99.90;;;;;;4368431;28;659210;-66
2021/01/12 04:07:59;;;;;;;105.70;31.77;;;-8.30;99.90;;;;;;4381414;28;659868;-66
2021/01/12 04:10:46;;;;;;;83.32;28.33;;;-8.20;99.90;;;;;;4362999;28;661160;-67
2021/01/12 04:13:33;;;;;;;100.88;31.15;;;-7.90;99.90;;;;;;4389723;28;659753;-66
2021/01/12 04:16:23;;;;;;;116.20;33.33;;;-8.00;99.90;;;;;;4363335;28;660144;-66
2021/01/12 04:19:10;;;;;;;86.60;29.50;;;-8.00;99.90;;;;;;4369307;28;659494;-66
2021/01/12 04:21:58;;;;;;;107.47;30.57;;;-8.00;99.90;;;;;;4390879;28;658760;-67
2021/01/12 04:24:45;;;;;;;100.97;28.33;;;-8.10;99.90;;;;;;4366817;28;660739;-66
2021/01/12 04:27:32;;;;;;;99.97;32.83;;;-8.10;99.90;;;;;;4400060;28;659695;-66
2021/01/12 04:30:19;;;;;;;97.60;29.87;;;-8.20;99.90;;;;;;4371136;28;659507;-64
2021/01/12 04:33:06;;;;;;;85.57;29.47;;;-8.20;99.90;;;;;;4389747;28;659419;-66
2021/01/12 04:35:54;;;;;;;91.80;28.80;;;-8.20;99.90;;;;;;4370945;28;658541;-62
2021/01/12 04:38:41;;;;;;;87.30;26.10;;;-8.30;99.90;;;;;;4399291;28;658356;-66
2021/01/12 04:41:29;;;;;;;87.70;26.88;;;-8.30;99.90;;;;;;4368397;28;658553;-63
2021/01/12 04:44:16;;;;;;;82.77;26.43;;;-8.20;99.90;;;;;;4393701;28;659428;-66
2021/01/12 04:47:06;;;;;;;85.77;27.60;;;-8.20;99.90;;;;;;4385115;28;659346;-67
2021/01/12 04:49:53;;;;;;;87.32;26.80;;;-8.20;99.90;;;;;;4367508;28;659440;-67
2021/01/12 04:52:44;;;;;;;82.78;25.98;;;-8.20;99.90;;;;;;4370917;28;658845;-67
2021/01/12 04:55:31;;;;;;;80.10;25.77;;;-8.10;99.90;;;;;;4370693;28;660193;-66
2021/01/12 04:58:19;;;;;;;82.97;25.38;;;-8.00;99.90;;;;;;4372044;28;658588;-63
2021/01/12 05:01:10;;;;;;;85.35;26.67;;;-8.00;99.90;;;;;;4400288;28;659549;-66
2021/01/12 05:03:57;;;;;;;83.80;25.00;;;-7.90;99.90;;;;;;4360812;28;659002;-67
2021/01/12 05:06:44;;;;;;;71.93;24.13;;;-7.60;99.90;;;;;;4364258;28;659609;-66
2021/01/12 05:09:31;;;;;;;74.00;24.23;;;-7.70;99.90;;;;;;4386786;28;660398;-67
2021/01/12 05:12:19;;;;;;;74.73;24.40;;;-7.70;99.90;;;;;;4387286;28;658416;-66
2021/01/12 05:15:07;;;;;;;80.80;25.30;;;-7.70;99.90;;;;;;4362852;28;659929;-67
2021/01/12 05:17:54;;;;;;;80.00;24.00;;;-7.80;99.90;;;;;;4377376;28;659116;-65
2021/01/12 05:20:44;;;;;;;76.30;22.97;;;-7.90;99.90;;;;;;4382584;28;660296;-67
2021/01/12 05:23:31;;;;;;;78.40;25.60;;;-7.90;99.90;;;;;;4363339;28;660157;-67
2021/01/12 05:26:19;;;;;;;76.68;23.75;;;-7.70;99.90;;;;;;4391850;28;659050;-67
2021/01/12 05:29:07;;;;;;;74.93;22.17;;;-7.80;99.90;;;;;;4378626;28;660012;-67
2021/01/12 05:31:55;;;;;;;77.80;23.47;;;-7.80;99.90;;;;;;4366089;28;658528;-64
2021/01/12 05:34:42;;;;;;;64.77;21.27;;;-7.80;99.90;;;;;;4388392;28;660092;-65
2021/01/12 05:37:29;;;;;;;76.57;23.40;;;-7.80;99.90;;;;;;4371169;28;658626;-65
2021/01/12 05:40:16;;;;;;;80.33;24.03;;;-7.60;99.90;;;;;;4389487;28;658674;-66
2021/01/12 05:43:08;;;;;;;79.13;23.37;;;-7.60;99.90;;;;;;4386231;28;658646;-62
2021/01/12 05:45:56;;;;;;;67.93;23.17;;;-7.70;99.90;;;;;;4365430;28;658591;-66
2021/01/12 05:48:43;;;;;;;55.47;19.13;;;-7.70;99.90;;;;;;4380722;28;658593;-67
2021/01/12 05:51:30;;;;;;;62.10;19.73;;;-7.80;99.90;;;;;;4359936;28;659583;-67
2021/01/12 05:54:30;;;;;;;66.33;22.03;;;-7.70;99.90;;;;;;4388856;28;659508;-67
2021/01/12 05:57:17;;;;;;;69.27;21.27;;;-7.70;99.90;;;;;;4365983;28;658447;-67
2021/01/12 06:00:05;;;;;;;64.60;21.47;;;-7.60;99.90;;;;;;4362806;28;658525;-66
2021/01/12 06:02:53;;;;;;;67.80;21.03;;;-7.70;99.90;;;;;;4380709;28;659797;-67
2021/01/12 06:05:41;;;;;;;63.37;20.27;;;-7.80;99.90;;;;;;4365858;28;658146;-67
2021/01/12 06:08:28;;;;;;;60.87;21.37;;;-7.70;99.90;;;;;;4386461;28;659989;-66
2021/01/12 06:11:15;;;;;;;56.53;20.58;;;-7.60;99.90;;;;;;4369788;28;658904;-67
2021/01/12 06:14:09;;;;;;;68.18;21.30;;;-7.70;99.90;;;;;;4380302;28;660162;-67
2021/01/12 06:16:58;;;;;;;70.47;19.37;;;-7.70;99.90;;;;;;4342392;28;660068;-67
2021/01/12 06:19:47;;;;;;;62.10;20.40;;;-7.70;99.90;;;;;;4362271;28;658651;-66
2021/01/12 06:22:37;;;;;;;50.08;18.25;;;-7.80;99.90;;;;;;4364097;28;660204;-62
2021/01/12 06:25:24;;;;;;;61.73;19.83;;;-7.80;99.90;;;;;;4371253;28;659593;-66
2021/01/12 06:28:11;;;;;;;49.27;16.83;;;-7.80;99.90;;;;;;4383315;28;659841;-67
2021/01/12 06:30:59;;;;;;;66.97;19.77;;;-7.80;99.90;;;;;;4379831;28;659335;-63
2021/01/12 06:33:55;;;;;;;62.73;17.87;;;-7.80;99.90;;;;;;4388686;28;659166;-66
2021/01/12 06:36:45;;;;;;;46.93;16.80;;;-7.90;99.90;;;;;;4358089;28;659050;-67
2021/01/12 06:39:40;;;;;;;59.53;18.73;;;-7.70;99.90;;;;;;4365261;28;660182;-67
2021/01/12 06:42:28;;;;;;;56.97;18.40;;;-7.60;99.90;;;;;;4370636;28;659763;-67
2021/01/12 06:45:15;;;;;;;60.35;18.35;;;-7.70;99.90;;;;;;4364766;28;660266;-67
2021/01/12 06:48:02;;;;;;;52.43;16.83;;;-7.70;99.90;;;;;;4382752;28;659855;-67
2021/01/12 06:50:49;;;;;;;61.47;17.40;;;-7.70;99.90;;;;;;4364458;28;659871;-66
2021/01/12 06:53:45;;;;;;;57.10;16.50;;;-7.40;99.90;;;;;;4384737;28;659775;-66
2021/01/12 06:56:33;;;;;;;40.50;14.03;;;-7.10;99.90;;;;;;4362318;28;658839;-67
2021/01/12 06:59:20;;;;;;;42.50;13.47;;;-7.00;99.90;;;;;;4363834;28;659556;-66
2021/01/12 07:02:22;;;;;;;43.37;14.53;;;-6.90;99.90;;;;;;4387786;28;660164;-67
2021/01/12 07:05:11;;;;;;;53.23;16.03;;;-6.70;99.90;;;;;;4343587;28;659618;-65
2021/01/12 07:07:58;;;;;;;49.57;16.03;;;-6.60;99.90;;;;;;4393591;28;659110;-67
2021/01/12 07:10:46;;;;;;;46.05;14.25;;;-6.40;99.90;;;;;;4371503;28;659168;-66
2021/01/12 07:13:37;;;;;;;45.23;15.50;;;-6.30;99.90;;;;;;4381254;28;658653;-62
2021/01/12 07:16:24;;;;;;;42.83;15.47;;;-6.20;99.90;;;;;;4373576;28;658585;-64
2021/01/12 07:19:11;;;;;;;48.80;15.87;;;-6.10;99.90;;;;;;4390397;28;660318;-67
2021/01/12 07:22:16;;;;;;;54.03;17.27;;;-6.00;99.90;;;;;;4388998;28;658633;-67
2021/01/12 07:25:05;;;;;;;52.57;17.40;;;-5.90;99.90;;;;;;4356311;28;658707;-61
2021/01/12 07:28:04;;;;;;;54.40;17.30;;;-5.80;99.90;;;;;;4384184;28;659887;-67
2021/01/12 07:30:52;;;;;;;50.83;16.90;;;-5.80;99.90;;;;;;4373807;28;660035;-67
2021/01/12 07:33:40;;;;;;;88.17;22.40;;;-5.70;99.90;;;;;;4364240;28;659200;-65
2021/01/12 07:36:27;;;;;;;99.90;26.40;;;-5.70;99.90;;;;;;4390045;28;660842;-67
2021/01/12 07:39:14;;;;;;;89.73;25.63;;;-5.70;99.90;;;;;;4369234;28;658600;-67
2021/01/12 07:42:02;;;;;;;127.30;30.50;;;-5.60;99.90;;;;;;4391665;28;658738;-67
2021/01/12 07:44:50;;;;;;;93.50;26.97;;;-5.60;99.90;;;;;;4364697;28;660500;-66
2021/01/12 07:47:37;;;;;;;101.30;26.47;;;-5.70;99.90;;;;;;4385791;28;660475;-67
2021/01/12 07:50:25;;;;;;;95.00;26.70;;;-5.50;99.90;;;;;;4364972;28;659761;-65
2021/01/12 07:53:13;;;;;;;98.53;28.00;;;-5.40;99.90;;;;;;4390688;28;660658;-67
2021/01/12 07:56:00;;;;;;;88.63;27.13;;;-5.20;99.90;;;;;;4372384;28;660083;-67
2021/01/12 07:58:47;;;;;;;129.83;31.67;;;-5.00;99.90;;;;;;4392275;28;660304;-67
2021/01/12 08:01:35;;;;;;;191.50;42.07;;;-4.80;99.90;;;;;;4379570;28;660913;-66
2021/01/12 08:04:22;;;;;;;135.07;33.17;;;-4.50;99.90;;;;;;4398283;28;661116;-67
2021/01/12 08:07:09;;;;;;;132.37;38.43;;;-4.20;99.90;;;;;;4387540;28;660625;-65
2021/01/12 08:09:56;;;;;;;116.97;35.53;;;-4.00;99.90;;;;;;4398086;28;660717;-67
2021/01/12 08:12:44;;;;;;;109.33;32.83;;;-3.80;99.90;;;;;;4403768;28;660339;-64
2021/01/12 08:15:31;;;;;;;93.20;32.33;;;-3.60;99.90;;;;;;4407351;28;659429;-67
2021/01/12 08:18:20;;;;;;;108.78;34.75;;;-3.50;99.90;;;;;;4403144;28;658913;-67
2021/01/12 08:21:07;;;;;;;114.23;36.47;;;-3.30;99.90;;;;;;4387438;28;660582;-68
2021/01/12 08:24:01;;;;;;;108.10;34.00;;;-3.00;99.90;;;;;;4386830;28;659735;-67
2021/01/12 08:26:48;;;;;;;102.40;36.43;;;-2.70;99.90;;;;;;4374678;28;660422;-67
2021/01/12 08:29:35;;;;;;;110.80;35.47;;;-2.50;99.90;;;;;;4382483;28;659869;-68
2021/01/12 08:32:23;;;;;;;99.77;35.20;;;-2.00;99.90;;;;;;4408603;28;660469;-68
2021/01/12 08:35:12;;;;;;;125.00;42.03;;;-1.30;99.90;;;;;;4384963;28;659484;-68
2021/01/12 08:38:00;;;;;;;131.27;44.33;;;-0.40;99.90;;;;;;4385739;28;659720;-67
2021/01/12 08:40:47;;;;;;;116.72;39.45;;;0.40;99.90;;;;;;4407670;28;660351;-67
2021/01/12 08:43:34;;;;;;;57.93;20.13;;;1.10;99.90;;;;;;4391521;28;660178;-67
2021/01/12 08:46:21;;;;;;;54.90;18.30;;;1.70;99.90;;;;;;4410437;28;658190;-68
2021/01/12 08:49:08;;;;;;;57.50;20.33;;;2.20;99.90;;;;;;4407982;28;658020;-68
2021/01/12 08:51:56;;;;;;;32.27;7.63;;;2.60;99.90;;;;;;4389781;28;658773;-67
2021/01/12 08:54:43;;;;;;;64.47;22.80;;;2.90;87.40;;;;;;4400484;28;656684;-68
2021/01/12 08:57:30;;;;;;;71.67;24.60;;;2.70;98.20;;;;;;4383335;28;657611;-68
2021/01/12 09:00:18;;;;;;;78.77;25.33;;;2.70;95.00;;;;;;4358184;28;745569;-68
2021/01/12 09:03:06;;;;;;;35.07;11.57;;;2.90;99.40;;;;;;4361492;28;659477;-68
2021/01/12 09:05:54;;;;;;;24.47;8.83;;;2.90;89.50;;;;;;4385930;28;658879;-64
2021/01/12 09:08:42;;;;;;;42.45;13.77;;;2.70;92.00;;;;;;4395693;28;655978;-64
2021/01/12 09:11:29;;;;;;;36.73;12.33;;;2.50;96.50;;;;;;4364212;28;660133;-66
2021/01/12 09:14:19;;;;;;;45.50;15.15;;;3.00;93.70;;;;;;4393365;28;657168;-67
2021/01/12 09:17:06;;;;;;;60.70;22.37;;;2.80;90.50;;;;;;4362152;28;659211;-67
2021/01/12 09:19:53;;;;;;;45.53;13.87;;;2.30;87.40;;;;;;4390900;28;657741;-68
2021/01/12 09:22:40;;;;;;;59.13;20.80;;;1.80;91.50;;;;;;4367904;28;658707;-67
2021/01/12 09:25:28;;;;;;;60.17;19.47;;;1.20;93.70;;;;;;4384012;28;657828;-67
2021/01/12 09:28:16;;;;;;;42.13;14.90;;;1.10;91.50;;;;;;4376734;28;658938;-67
2021/01/12 09:35:02;;;;;;;43.97;12.00;;;0.90;88.30;;;;;;4357096;28;658635;-68
2021/01/12 09:37:55;;;;;;;41.80;14.53;;;1.10;83.20;;;;;;4373887;28;657385;-67
2021/01/12 09:40:43;;;;;;;39.60;13.43;;;1.40;74.10;;;;;;4368424;28;658079;-67
2021/01/12 09:43:30;;;;;;;29.73;9.63;;;1.20;73.20;;;;;;4367545;28;659785;-68
2021/01/12 09:46:17;;;;;;;57.87;21.63;;;1.30;72.10;;;;;;4390109;28;656855;-67
2021/01/12 09:49:05;;;;;;;56.77;18.67;;;1.30;70.60;;;;;;4363660;28;657626;-67
2021/01/12 09:51:52;;;;;;;49.40;18.07;;;1.20;71.60;;;;;;4384195;28;658779;-67
2021/01/12 09:54:41;;;;;;;59.63;19.83;;;1.50;72.30;;;;;;4372400;28;657508;-63
2021/01/12 09:57:29;;;;;;;25.90;10.10;;;1.70;73.20;;;;;;4380597;28;657634;-64
2021/01/12 10:00:18;;;;;;;41.27;14.77;;;1.90;71.00;;;;;;4397138;28;659474;-67
2021/01/12 10:03:05;;;;;;;57.73;22.87;;;2.10;67.40;;;;;;4387001;28;657584;-67
2021/01/12 10:05:52;;;;;;;46.00;15.67;;;1.90;69.20;;;;;;4400514;28;658214;-67
2021/01/12 10:08:39;;;;;;;47.63;17.43;;;2.00;69.10;;;;;;4388568;28;657572;-64
2021/01/12 10:11:28;;;;;;;53.43;18.53;;;1.90;71.60;;;;;;4407928;28;658624;-67
2021/01/12 10:14:16;;;;;;;55.07;18.67;;;1.80;72.10;;;;;;4377179;28;657962;-67
2021/01/12 10:17:04;;;;;;;29.93;10.83;;;1.50;72.40;;;;;;4400382;28;657467;-67
2021/01/12 10:19:51;;;;;;;57.05;18.02;;;1.40;75.40;;;;;;4389388;28;657557;-67
2021/01/12 10:22:38;;;;;;;49.20;18.67;;;1.10;77.00;;;;;;4408417;28;658978;-67
2021/01/12 10:25:26;;;;;;;55.20;19.50;;;1.00;76.80;;;;;;4384357;28;657759;-67
2021/01/12 10:28:13;;;;;;;55.40;18.70;;;1.00;79.30;;;;;;4405502;28;658404;-67
2021/01/12 10:31:01;;;;;;;33.53;13.83;;;0.90;79.20;;;;;;4379944;28;657706;-68
2021/01/12 10:33:48;;;;;;;26.47;9.80;;;1.00;79.30;;;;;;4402310;28;658082;-67
2021/01/12 10:36:35;;;;;;;30.63;7.67;;;1.10;81.00;;;;;;4376475;28;657569;-67
2021/01/12 10:39:22;;;;;;;69.33;23.03;;;1.00;79.80;;;;;;4403712;28;656869;-67
2021/01/12 10:42:10;;;;;;;15.27;5.07;;;1.00;84.80;;;;;;4382320;28;657822;-66
2021/01/12 10:44:57;;;;;;;59.07;19.50;;;1.00;82.00;;;;;;4411550;28;658596;-66
2021/01/12 10:47:45;;;;;;;40.97;13.33;;;1.10;82.60;;;;;;4383830;28;659027;-63
2021/01/12 10:50:32;;;;;;;78.35;23.45;;;1.20;81.20;;;;;;4410671;28;659213;-66
2021/01/12 10:53:19;;;;;;;71.28;25.15;;;1.10;81.10;;;;;;4390758;28;657490;-64
2021/01/12 10:56:06;;;;;;;38.28;12.82;;;1.20;82.50;;;;;;4410204;28;657834;-67
2021/01/12 10:58:53;;;;;;;47.93;15.33;;;1.40;79.70;;;;;;4405921;28;657613;-68
2021/01/12 11:01:48;;;;;;;55.43;19.20;;;1.40;78.30;;;;;;4379765;28;657578;-66
2021/01/12 11:04:36;;;;;;;26.00;9.80;;;1.50;78.30;;;;;;4364607;28;659085;-65
2021/01/12 11:07:23;;;;;;;65.90;21.20;;;1.50;77.60;;;;;;4401089;28;656788;-65
2021/01/12 11:10:11;;;;;;;67.72;23.95;;;1.60;76.70;;;;;;4387699;28;657603;-67
2021/01/12 11:12:59;;;;;;;66.63;23.73;;;1.80;76.40;;;;;;4404727;28;658950;-68
2021/01/12 11:15:46;;;;;;;70.03;23.90;;;2.10;76.70;;;;;;4382428;28;659046;-68
2021/01/12 11:18:34;;;;;;;61.60;20.17;;;2.50;74.00;;;;;;4390141;28;657364;-64
2021/01/12 11:21:22;;;;;;;73.80;27.07;;;2.50;73.30;;;;;;4404218;28;658884;-68
2021/01/12 11:24:13;;;;;;;46.33;15.60;;;2.20;71.80;;;;;;4379235;28;658231;-67
2021/01/12 11:27:03;;;;;;;29.87;10.07;;;2.20;73.60;;;;;;4383040;28;657772;-67
2021/01/12 11:29:52;;;;;;;70.17;23.53;;;2.10;73.10;;;;;;4379027;28;659160;-68
2021/01/12 11:32:43;;;;;;;60.30;20.13;;;2.10;73.20;;;;;;4385682;28;657543;-67
2021/01/12 11:35:31;;;;;;;44.10;14.70;;;2.10;73.80;;;;;;4378404;28;658237;-67
2021/01/12 11:38:21;;;;;;;49.47;16.57;;;1.90;74.30;;;;;;4393797;28;658337;-64
2021/01/12 11:41:10;;;;;;;91.17;27.20;;;2.10;76.10;;;;;;4409353;28;658791;-64
2021/01/12 11:43:57;;;;;;;45.33;15.20;;;2.20;73.00;;;;;;4404594;28;659633;-68
2021/01/12 11:46:44;;;;;;;30.02;11.57;;;2.20;73.90;;;;;;4378995;28;657859;-64
2021/01/12 11:49:31;;;;;;;65.82;22.48;;;2.10;74.50;;;;;;4417530;28;657152;-67
2021/01/12 11:52:18;;;;;;;74.57;26.03;;;1.90;74.40;;;;;;4402766;28;657574;-68
2021/01/12 11:55:08;;;;;;;84.57;27.40;;;1.80;76.00;;;;;;4381927;28;658946;-68
2021/01/12 11:57:55;;;;;;;74.70;24.93;;;1.70;78.70;;;;;;4389752;28;658530;-68
2021/01/12 12:00:43;;;;;;;80.43;25.92;;;1.60;78.90;;;;;;4402613;28;657906;-68
2021/01/12 12:03:30;;;;;;;61.73;23.63;;;1.70;78.60;;;;;;4390205;28;657648;-67
2021/01/12 12:06:17;;;;;;;54.83;20.20;;;1.80;76.70;;;;;;4407084;28;659242;-67
2021/01/12 12:09:05;;;;;;;41.40;13.87;;;2.00;77.20;;;;;;4395701;28;658010;-67
2021/01/12 12:11:53;;;;;;;36.07;11.30;;;1.90;75.90;;;;;;4404342;28;658538;-68
2021/01/12 12:14:41;;;;;;;39.87;12.27;;;1.80;79.60;;;;;;4385937;28;658997;-67
2021/01/12 12:17:29;;;;;;;58.30;15.70;;;1.80;78.30;;;;;;4401479;28;657658;-63
2021/01/12 12:20:19;;;;;;;55.30;17.50;;;1.80;78.20;;;;;;4408271;28;658676;-67
2021/01/12 12:23:06;;;;;;;42.03;14.50;;;1.70;80.90;;;;;;4388418;28;658453;-68
2021/01/12 12:25:53;;;;;;;28.30;10.43;;;1.60;81.50;;;;;;4405212;28;660018;-68
2021/01/12 12:28:41;;;;;;;40.30;13.27;;;1.60;81.80;;;;;;4382908;28;658056;-67
2021/01/12 12:31:28;;;;;;;38.17;11.90;;;1.60;81.70;;;;;;4400549;28;657467;-67
2021/01/12 12:34:15;;;;;;;43.17;14.37;;;1.60;80.80;;;;;;4396987;28;657715;-67
2021/01/12 12:37:02;;;;;;;19.17;7.03;;;1.60;83.60;;;;;;4408746;28;659275;-67
2021/01/12 12:39:49;;;;;;;18.03;6.07;;;1.60;80.10;;;;;;4391293;28;657262;-68
2021/01/12 12:42:36;;;;;;;29.47;10.40;;;1.60;81.90;;;;;;4400604;28;658267;-67
2021/01/12 12:45:27;;;;;;;24.95;7.25;;;1.60;79.90;;;;;;4397792;28;657500;-64
2021/01/12 12:48:14;;;;;;;23.48;8.77;;;1.60;79.50;;;;;;4393556;28;656787;-64
2021/01/12 12:51:01;;;;;;;27.77;9.33;;;1.50;79.80;;;;;;4404311;28;657908;-67
2021/01/12 12:53:51;;;;;;;23.43;7.53;;;1.60;79.90;;;;;;4404539;28;656832;-68
2021/01/12 12:56:38;;;;;;;24.42;8.35;;;1.60;78.30;;;;;;4385620;28;657099;-67
2021/01/12 12:59:25;;;;;;;29.48;9.55;;;1.70;78.10;;;;;;4396279;28;657844;-66
2021/01/12 13:02:14;;;;;;;24.67;9.02;;;1.60;79.90;;;;;;4410454;28;657097;-68
2021/01/12 13:05:02;;;;;;;21.13;7.07;;;1.60;78.90;;;;;;4392331;28;658037;-67
2021/01/12 13:07:49;;;;;;;19.03;5.67;;;1.60;79.90;;;;;;4391858;28;656464;-64
2021/01/12 13:10:36;;;;;;;27.13;9.83;;;1.60;79.30;;;;;;4423970;28;656998;-67
2021/01/12 13:13:23;;;;;;;24.65;10.15;;;1.50;79.50;;;;;;4416143;28;657628;-67
2021/01/12 13:16:11;;;;;;;25.83;9.43;;;1.50;79.80;;;;;;4393041;28;659435;-67
2021/01/12 13:19:01;;;;;;;22.27;7.17;;;1.50;79.80;;;;;;4402221;28;656483;-64
2021/01/12 13:21:53;;;;;;;19.20;4.67;;;1.60;79.90;;;;;;4416206;28;657407;-67
2021/01/12 13:24:40;;;;;;;11.63;5.17;;;1.60;79.90;;;;;;4365775;28;658006;-67
2021/01/12 13:27:28;;;;;;;26.90;8.07;;;1.70;82.30;;;;;;4412941;28;658482;-68
2021/01/12 13:30:16;;;;;;;32.63;12.83;;;1.60;81.20;;;;;;4395968;28;656354;-68
2021/01/12 13:33:03;;;;;;;8.40;3.80;;;1.60;80.70;;;;;;4416030;28;658151;-68
2021/01/12 13:35:50;;;;;;;35.10;12.50;;;1.70;81.50;;;;;;4396309;28;656188;-67
2021/01/12 13:38:37;;;;;;;35.93;11.97;;;1.70;80.80;;;;;;4413186;28;659001;-68
2021/01/12 13:41:24;;;;;;;35.77;12.37;;;1.60;80.80;;;;;;4396451;28;658421;-67
2021/01/12 13:44:11;;;;;;;36.30;12.77;;;1.50;83.50;;;;;;4419521;28;659150;-68
2021/01/12 13:46:59;;;;;;;44.80;14.25;;;1.50;88.00;;;;;;4400266;28;657637;-64
2021/01/12 13:49:46;;;;;;;18.30;6.15;;;1.50;87.10;;;;;;4413219;28;658530;-67
2021/01/12 13:52:35;;;;;;;21.57;7.07;;;1.60;84.70;;;;;;4397858;28;656460;-63
2021/01/12 13:55:23;;;;;;;11.47;3.90;;;1.70;82.40;;;;;;4408789;28;657594;-68
2021/01/12 13:58:12;;;;;;;10.80;3.97;;;1.70;78.70;;;;;;4387132;28;656646;-68
2021/01/12 14:00:59;;;;;;;26.90;9.80;;;1.60;77.40;;;;;;4404438;28;656073;-65
2021/01/12 14:03:46;;;;;;;21.87;6.93;;;1.60;76.60;;;;;;4413766;28;658253;-67
2021/01/12 14:06:34;;;;;;;27.45;9.77;;;1.50;77.20;;;;;;4395364;28;656943;-64